createdAt,value
2018-09-03T00:01:10.862Z,3.83
2018-09-03T00:03:41.126Z,3.67
2018-09-03T00:06:12.221Z,4.00
2018-09-03T00:08:42.036Z,3.80
2018-09-03T00:11:11.608Z,3.97
2018-09-03T00:13:41.865Z,3.87
2018-09-03T00:16:12.626Z,3.80
2018-09-03T00:18:42.130Z,3.90
2018-09-03T00:21:12.386Z,4.07
2018-09-03T00:23:42.238Z,4.07
2018-09-03T00:26:15.143Z,3.73
2018-09-03T00:28:46.182Z,4.13
2018-09-03T00:31:21.838Z,3.97
2018-09-03T00:33:58.110Z,4.07
2018-09-03T00:36:33.030Z,4.53
2018-09-03T00:39:08.602Z,4.43
2018-09-03T00:41:44.162Z,4.00
2018-09-03T00:44:19.046Z,4.10
2018-09-03T00:46:54.013Z,4.23
2018-09-03T00:49:24.011Z,4.57
2018-09-03T00:51:54.726Z,4.10
2018-09-03T00:54:24.888Z,3.93
2018-09-03T00:56:53.726Z,3.77
2018-09-03T00:59:24.993Z,4.30
2018-09-03T01:01:55.038Z,3.53
2018-09-03T01:04:24.805Z,4.10
2018-09-03T01:06:55.030Z,4.07
2018-09-03T01:09:25.586Z,4.03
2018-09-03T01:11:57.426Z,4.13
2018-09-03T01:14:27.576Z,4.23
2018-09-03T01:16:56.706Z,4.13
2018-09-03T01:19:28.038Z,3.93
2018-09-03T01:21:58.446Z,4.17
2018-09-03T01:24:29.173Z,4.23
2018-09-03T01:26:59.236Z,4.07
2018-09-03T01:29:30.207Z,4.07
2018-09-03T01:32:02.378Z,4.40
2018-09-03T01:34:34.130Z,4.23
2018-09-03T01:37:05.027Z,4.17
2018-09-03T01:39:35.290Z,4.40
2018-09-03T01:42:05.426Z,4.57
2018-09-03T01:44:35.145Z,4.43
2018-09-03T01:47:06.282Z,3.87
2018-09-03T01:49:38.582Z,4.27
2018-09-03T01:52:10.174Z,4.30
2018-09-03T01:54:41.121Z,4.20
2018-09-03T01:57:12.093Z,4.03
2018-09-03T01:59:42.596Z,4.00
2018-09-03T02:02:12.328Z,4.27
2018-09-03T02:04:43.098Z,4.20
2018-09-03T02:07:12.730Z,4.07
2018-09-03T02:09:43.187Z,4.10
2018-09-03T02:12:14.454Z,4.60
2018-09-03T02:14:46.422Z,4.17
2018-09-03T02:17:16.178Z,4.20
2018-09-03T02:19:45.581Z,4.13
2018-09-03T02:22:16.122Z,4.20
2018-09-03T02:24:46.637Z,4.57
2018-09-03T02:27:17.045Z,4.17
2018-09-03T02:29:48.074Z,3.87
2018-09-03T02:32:17.950Z,3.97
2018-09-03T02:34:48.703Z,4.50
2018-09-03T02:37:19.321Z,3.87
2018-09-03T02:39:50.234Z,4.03
2018-09-03T02:42:20.961Z,3.97
2018-09-03T02:44:51.362Z,3.90
2018-09-03T02:47:20.513Z,3.70
2018-09-03T02:49:50.294Z,4.30
2018-09-03T02:52:20.094Z,4.50
2018-09-03T02:54:50.827Z,4.13
2018-09-03T02:57:22.775Z,4.27
2018-09-03T02:59:53.902Z,4.50
2018-09-03T03:02:23.614Z,4.40
2018-09-03T03:04:55.259Z,4.10
2018-09-03T03:07:25.910Z,4.23
2018-09-03T03:09:55.745Z,4.40
2018-09-03T03:12:25.726Z,4.97
2018-09-03T03:15:01.239Z,3.97
2018-09-03T03:17:32.782Z,4.40
2018-09-03T03:20:02.331Z,4.57
2018-09-03T03:22:31.674Z,4.30
2018-09-03T03:25:01.507Z,4.07
2018-09-03T03:27:34.307Z,4.63
2018-09-03T03:30:04.074Z,4.23
2018-09-03T03:32:35.266Z,4.93
2018-09-03T03:35:05.302Z,4.80
2018-09-03T03:37:35.601Z,4.47
2018-09-03T03:40:05.825Z,4.60
2018-09-03T03:42:36.250Z,4.40
2018-09-03T03:45:06.441Z,4.93
2018-09-03T03:47:37.606Z,4.90
2018-09-03T03:50:07.991Z,5.03
2018-09-03T03:52:39.198Z,4.40
2018-09-03T03:55:10.710Z,4.90
2018-09-03T03:57:40.126Z,5.07
2018-09-03T04:00:10.693Z,4.93
2018-09-03T04:02:40.951Z,4.83
2018-09-03T04:05:11.342Z,5.07
2018-09-03T04:07:42.866Z,5.23
2018-09-03T04:10:13.040Z,5.13
2018-09-03T04:12:46.714Z,4.87
2018-09-03T04:15:17.889Z,4.93
2018-09-03T04:17:47.378Z,4.80
2018-09-03T04:20:17.762Z,4.43
2018-09-03T04:22:47.565Z,5.20
2018-09-03T04:25:19.005Z,5.30
2018-09-03T04:27:49.257Z,5.70
2018-09-03T04:30:19.906Z,5.23
2018-09-03T04:32:51.107Z,5.20
2018-09-03T04:35:21.515Z,5.73
2018-09-03T04:37:52.230Z,5.70
2018-09-03T04:40:23.024Z,5.53
2018-09-03T04:42:53.108Z,5.40
2018-09-03T04:45:23.981Z,5.10
2018-09-03T04:47:53.491Z,5.50
2018-09-03T04:50:22.802Z,5.37
2018-09-03T04:52:53.543Z,5.30
2018-09-03T04:55:23.887Z,5.73
2018-09-03T04:57:53.882Z,5.40
2018-09-03T05:00:23.958Z,5.80
2018-09-03T05:02:54.136Z,5.20
2018-09-03T05:05:25.440Z,6.10
2018-09-03T05:07:55.892Z,6.00
2018-09-03T05:10:27.146Z,5.27
2018-09-03T05:12:56.838Z,5.73
2018-09-03T05:15:27.210Z,5.80
2018-09-03T05:17:57.289Z,5.57
2018-09-03T05:20:28.060Z,6.43
2018-09-03T05:22:58.354Z,6.30
2018-09-03T05:25:29.022Z,6.53
2018-09-03T05:27:59.117Z,6.50
2018-09-03T05:30:30.295Z,5.93
2018-09-03T05:33:00.693Z,5.67
2018-09-03T05:35:31.910Z,6.07
2018-09-03T05:38:01.926Z,6.07
2018-09-03T05:40:32.135Z,6.30
2018-09-03T05:43:03.189Z,6.40
2018-09-03T05:45:32.786Z,6.33
2018-09-03T05:48:02.386Z,6.40
2018-09-03T05:50:33.891Z,6.13
2018-09-03T05:53:04.817Z,6.30
2018-09-03T05:55:34.314Z,6.40
2018-09-03T05:58:05.047Z,6.90
2018-09-03T06:00:36.011Z,6.50
2018-09-03T06:03:06.809Z,7.10
2018-09-03T06:05:36.282Z,6.60
2018-09-03T06:08:06.108Z,7.20
2018-09-03T06:10:35.485Z,7.30
2018-09-03T06:13:05.710Z,6.90
2018-09-03T06:15:37.220Z,6.97
2018-09-03T06:18:07.179Z,6.77
2018-09-03T06:20:37.446Z,7.20
2018-09-03T06:23:07.165Z,6.87
2018-09-03T06:25:37.007Z,7.03
2018-09-03T06:28:07.030Z,7.50
2018-09-03T06:30:37.890Z,7.27
2018-09-03T06:33:07.982Z,6.90
2018-09-03T06:35:38.972Z,7.93
2018-09-03T06:38:10.126Z,8.00
2018-09-03T06:40:41.438Z,8.37
2018-09-03T06:43:13.920Z,7.70
2018-09-03T06:45:43.648Z,7.90
2018-09-03T06:48:13.754Z,7.70
2018-09-03T06:50:43.702Z,8.20
2018-09-03T06:53:13.556Z,7.73
2018-09-03T06:55:42.434Z,8.33
2018-09-03T06:58:12.174Z,7.90
2018-09-03T07:00:43.415Z,8.37
2018-09-03T07:03:12.498Z,8.83
2018-09-03T07:05:42.450Z,8.33
2018-09-03T07:08:14.018Z,8.77
2018-09-03T07:10:43.563Z,9.00
2018-09-03T07:13:13.261Z,9.03
2018-09-03T07:15:43.638Z,9.23
2018-09-03T07:18:13.929Z,9.70
2018-09-03T07:20:43.130Z,9.20
2018-09-03T07:23:14.118Z,9.40
2018-09-03T07:25:43.566Z,9.27
2018-09-03T07:28:13.838Z,9.60
2018-09-03T07:30:43.692Z,10.67
2018-09-03T07:33:13.742Z,10.43
2018-09-03T07:35:43.580Z,9.83
2018-09-03T07:38:15.154Z,10.07
2018-09-03T07:40:46.822Z,8.83
2018-09-03T07:43:17.038Z,9.43
2018-09-03T07:45:47.378Z,9.27
2018-09-03T07:48:17.119Z,8.70
2018-09-03T07:50:47.418Z,8.47
2018-09-03T07:53:17.926Z,8.30
2018-09-03T07:55:47.741Z,8.47
2018-09-03T07:58:17.966Z,9.00
2018-09-03T08:00:47.471Z,9.50
2018-09-03T08:03:16.310Z,8.90
2018-09-03T08:05:46.303Z,9.10
2018-09-03T08:08:16.958Z,9.20
2018-09-03T08:10:46.420Z,9.43
2018-09-03T08:13:21.211Z,9.40
2018-09-03T08:15:52.478Z,10.20
2018-09-03T08:18:24.166Z,9.30
2018-09-03T08:20:54.721Z,10.10
2018-09-03T08:23:25.370Z,10.33
2018-09-03T08:25:56.046Z,10.33
2018-09-03T08:28:26.468Z,9.33
2018-09-03T08:30:56.338Z,9.50
2018-09-03T08:33:28.102Z,9.70
2018-09-03T08:35:59.077Z,9.83
2018-09-03T08:38:28.439Z,10.10
2018-09-03T08:40:58.250Z,9.77
2018-09-03T08:43:29.414Z,10.07
2018-09-03T08:46:00.334Z,9.73
2018-09-03T08:48:30.027Z,10.67
2018-09-03T08:51:01.290Z,10.93
2018-09-03T08:53:31.458Z,10.27
2018-09-03T08:56:00.871Z,10.53
2018-09-03T08:58:32.021Z,10.90
2018-09-03T09:01:00.653Z,11.50
2018-09-03T09:03:36.221Z,11.73
2018-09-03T09:06:07.359Z,11.57
2018-09-03T09:08:37.166Z,11.37
2018-09-03T09:11:08.567Z,11.17
2018-09-03T09:13:39.032Z,11.07
2018-09-03T09:16:08.878Z,11.40
2018-09-03T09:18:40.890Z,11.57
2018-09-03T09:21:11.348Z,11.37
2018-09-03T09:23:40.923Z,11.20
2018-09-03T09:26:11.090Z,11.90
2018-09-03T09:28:42.878Z,11.47
2018-09-03T09:31:14.070Z,12.30
2018-09-03T09:33:44.394Z,12.73
2018-09-03T09:36:14.944Z,12.30
2018-09-03T09:38:46.288Z,10.83
2018-09-03T09:41:16.629Z,10.80
2018-09-03T09:43:47.031Z,10.87
2018-09-03T09:46:19.130Z,10.83
2018-09-03T09:48:49.982Z,10.50
2018-09-03T09:51:20.938Z,11.60
2018-09-03T09:53:51.189Z,9.77
2018-09-03T09:56:21.918Z,10.50
2018-09-03T09:58:52.942Z,9.97
2018-09-03T10:01:39.243Z,10.63
2018-09-03T10:04:09.696Z,10.90
2018-09-03T10:06:40.974Z,10.23
2018-09-03T10:09:11.098Z,10.53
2018-09-03T10:11:40.494Z,11.23
2018-09-03T10:14:10.326Z,10.10
2018-09-03T10:16:41.796Z,10.57
2018-09-03T10:19:11.378Z,10.30
2018-09-03T10:21:42.078Z,9.93
2018-09-03T10:24:13.124Z,10.90
2018-09-03T10:26:43.226Z,9.30
2018-09-03T10:29:12.610Z,9.20
2018-09-03T10:31:41.803Z,9.30
2018-09-03T10:34:11.570Z,9.80
2018-09-03T10:36:42.286Z,8.17
2018-09-03T10:39:13.994Z,8.90
2018-09-03T10:41:43.773Z,9.40
2018-09-03T10:44:13.197Z,9.63
2018-09-03T10:46:42.355Z,9.70
2018-09-03T10:49:13.866Z,9.90
2018-09-03T10:51:45.138Z,10.07
2018-09-03T10:54:16.446Z,9.80
2018-09-03T10:56:47.370Z,8.87
2018-09-03T10:59:18.874Z,8.90
2018-09-03T11:01:49.198Z,7.30
2018-09-03T11:04:18.397Z,8.60
2018-09-03T11:06:48.815Z,8.30
2018-09-03T11:11:49.150Z,10.00
2018-09-03T11:14:18.626Z,8.83
2018-09-03T11:16:49.765Z,9.80
2018-09-03T11:19:22.075Z,9.87
2018-09-03T11:21:53.453Z,10.47
2018-09-03T11:24:24.862Z,11.10
2018-09-03T11:26:57.044Z,11.03
2018-09-03T11:29:28.182Z,10.60
2018-09-03T11:31:59.457Z,12.10
2018-09-03T11:34:30.508Z,11.20
2018-09-03T11:37:00.503Z,11.77
2018-09-03T11:39:30.130Z,12.13
2018-09-03T11:42:00.090Z,11.97
2018-09-03T11:44:30.190Z,12.43
2018-09-03T11:47:01.675Z,12.30
2018-09-03T11:49:32.578Z,12.03
2018-09-03T11:52:02.340Z,12.77
2018-09-03T11:54:32.138Z,11.97
2018-09-03T11:57:03.550Z,13.57
2018-09-03T11:59:34.932Z,14.47
2018-09-03T12:02:05.248Z,14.70
2018-09-03T12:04:35.634Z,15.10
2018-09-03T12:07:06.306Z,14.33
2018-09-03T12:09:36.394Z,15.23
2018-09-03T12:12:08.531Z,15.80
2018-09-03T12:14:41.422Z,16.73
2018-09-03T12:17:12.922Z,15.30
2018-09-03T12:19:42.526Z,17.77
2018-09-03T12:22:12.906Z,16.33
2018-09-03T12:24:43.179Z,14.90
2018-09-03T12:27:12.560Z,16.90
2018-09-03T12:29:43.426Z,18.53
2018-09-03T12:32:14.866Z,19.93
2018-09-03T12:34:44.531Z,18.50
2018-09-03T12:37:13.786Z,19.17
2018-09-03T12:39:43.705Z,20.00
2018-09-03T12:42:14.111Z,18.60
2018-09-03T12:46:13.159Z,17.83
2018-09-03T12:48:44.134Z,20.03
2018-09-03T12:51:14.502Z,17.47
2018-09-03T12:53:44.280Z,18.17
2018-09-03T12:56:15.838Z,17.93
2018-09-03T12:58:45.765Z,18.33
2018-09-03T13:01:15.837Z,17.80
2018-09-03T13:03:45.824Z,18.70
2018-09-03T13:06:16.830Z,17.57
2018-09-03T13:08:47.146Z,17.73
2018-09-03T13:11:16.585Z,16.40
2018-09-03T13:13:47.478Z,17.67
2018-09-03T13:16:19.094Z,17.03
2018-09-03T13:18:50.762Z,16.10
2018-09-03T13:21:20.503Z,16.27
2018-09-03T13:23:50.578Z,18.50
2018-09-03T13:26:20.422Z,18.17
2018-09-03T13:28:51.875Z,26.77
2018-09-03T13:31:24.110Z,28.13
2018-09-03T13:33:54.766Z,28.43
2018-09-03T13:36:26.222Z,26.00
2018-09-03T13:38:58.693Z,27.47
2018-09-03T13:41:29.883Z,22.47
2018-09-03T13:44:01.026Z,26.43
2018-09-03T13:46:30.111Z,25.43
2018-09-03T13:49:00.711Z,26.23
2018-09-03T13:51:32.539Z,24.83
2018-09-03T13:54:03.214Z,24.23
2018-09-03T13:56:33.025Z,22.37
2018-09-03T13:59:04.234Z,21.17
2018-09-03T14:01:35.069Z,24.37
2018-09-03T14:04:06.602Z,21.07
2018-09-03T14:06:38.665Z,22.10
2018-09-03T14:09:08.907Z,22.97
2018-09-03T14:11:38.803Z,21.77
2018-09-03T14:14:08.218Z,20.80
2018-09-03T14:16:39.824Z,19.17
2018-09-03T14:19:10.670Z,20.30
2018-09-03T14:21:40.832Z,19.77
2018-09-03T14:24:10.770Z,20.97
2018-09-03T14:26:40.430Z,22.77
2018-09-03T14:29:11.566Z,21.73
2018-09-03T14:31:42.271Z,21.97
2018-09-03T14:34:12.057Z,20.50
2018-09-03T14:36:41.908Z,20.17
2018-09-03T14:39:12.811Z,20.73
2018-09-03T14:41:43.230Z,22.90
2018-09-03T14:44:13.961Z,25.43
2018-09-03T14:46:43.843Z,24.47
2018-09-03T14:49:15.742Z,23.47
2018-09-03T14:51:45.323Z,23.57
2018-09-03T14:54:16.990Z,22.27
2018-09-03T14:56:46.094Z,24.60
2018-09-03T14:59:16.581Z,22.57
2018-09-03T15:01:46.907Z,22.47
2018-09-03T15:04:15.818Z,23.57
2018-09-03T15:06:45.838Z,23.50
2018-09-03T15:09:16.732Z,21.77
2018-09-03T15:11:46.753Z,20.60
2018-09-03T15:14:17.386Z,20.63
2018-09-03T15:16:46.938Z,22.10
2018-09-03T15:19:17.829Z,23.57
2018-09-03T15:21:48.063Z,21.57
2018-09-03T15:24:20.042Z,22.23
2018-09-03T15:26:50.163Z,23.67
2018-09-03T15:29:20.943Z,22.53
2018-09-03T15:31:51.789Z,22.33
2018-09-03T15:34:22.726Z,22.00
2018-09-03T15:36:52.994Z,22.97
2018-09-03T15:39:24.175Z,23.60
2018-09-03T15:41:55.790Z,23.50
2018-09-03T15:44:27.039Z,23.73
2018-09-03T15:46:58.790Z,29.47
2018-09-03T15:49:29.774Z,28.37
2018-09-03T15:52:01.487Z,25.17
2018-09-03T15:54:31.393Z,28.73
2018-09-03T15:57:01.837Z,32.00
2018-09-03T15:59:32.919Z,29.70
2018-09-03T16:02:02.910Z,30.47
2018-09-03T16:04:32.760Z,29.27
2018-09-03T16:07:03.673Z,30.10
2018-09-03T16:09:34.577Z,32.03
2018-09-03T16:12:04.397Z,30.50
2018-09-03T16:14:34.877Z,35.67
2018-09-03T16:17:05.033Z,33.90
2018-09-03T16:19:35.305Z,33.10
2018-09-03T16:22:07.735Z,33.93
2018-09-03T16:24:38.934Z,33.80
2018-09-03T16:27:08.890Z,34.83
2018-09-03T16:29:38.316Z,35.13
2018-09-03T16:32:08.439Z,35.87
2018-09-03T16:34:38.814Z,39.80
2018-09-03T16:37:09.011Z,35.40
2018-09-03T16:39:39.834Z,36.80
2018-09-03T16:42:09.962Z,36.63
2018-09-03T16:44:40.839Z,38.70
2018-09-03T16:47:11.051Z,35.17
2018-09-03T16:49:42.059Z,34.30
2018-09-03T16:52:12.280Z,35.20
2018-09-03T16:54:42.826Z,35.47
2018-09-03T16:57:13.902Z,36.23
2018-09-03T16:59:45.926Z,36.47
2018-09-03T17:02:16.394Z,35.80
2018-09-03T17:04:47.386Z,34.13
2018-09-03T17:07:17.715Z,36.17
2018-09-03T17:09:49.209Z,37.70
2018-09-03T17:12:19.754Z,35.90
2018-09-03T17:14:50.112Z,37.17
2018-09-03T17:17:19.889Z,36.10
2018-09-03T17:19:49.773Z,37.17
2018-09-03T17:22:22.614Z,36.37
2018-09-03T17:24:52.673Z,38.30
2018-09-03T17:27:24.518Z,33.63
2018-09-03T17:29:54.831Z,33.73
2018-09-03T17:32:25.530Z,35.73
2018-09-03T17:34:55.845Z,34.73
2018-09-03T17:37:26.330Z,36.93
2018-09-03T17:39:56.453Z,36.40
2018-09-03T17:42:27.519Z,35.60
2018-09-03T17:44:56.959Z,33.60
2018-09-03T17:47:28.703Z,32.50
2018-09-03T17:49:58.266Z,33.07
2018-09-03T17:52:28.611Z,33.60
2018-09-03T17:54:59.702Z,33.33
2018-09-03T17:57:29.350Z,33.07
2018-09-03T17:59:59.364Z,33.70
2018-09-03T18:02:28.974Z,31.43
2018-09-03T18:04:58.670Z,33.87
2018-09-03T18:07:29.019Z,31.60
2018-09-03T18:09:59.650Z,31.77
2018-09-03T18:12:33.277Z,29.77
2018-09-03T18:15:04.025Z,28.40
2018-09-03T18:17:35.627Z,27.60
2018-09-03T18:20:07.352Z,27.27
2018-09-03T18:22:38.078Z,27.47
2018-09-03T18:25:07.943Z,27.83
2018-09-03T18:27:38.578Z,26.77
2018-09-03T18:30:10.926Z,25.83
2018-09-03T18:32:40.634Z,26.63
2018-09-03T18:35:10.142Z,26.07
2018-09-03T18:37:39.979Z,27.70
2018-09-03T18:40:10.695Z,26.37
2018-09-03T18:42:40.962Z,26.90
2018-09-03T18:45:11.702Z,27.47
2018-09-03T18:47:41.666Z,27.07
2018-09-03T18:50:13.749Z,28.33
2018-09-03T18:52:44.509Z,27.30
2018-09-03T18:55:14.522Z,26.37
2018-09-03T18:57:44.162Z,26.43
2018-09-03T19:00:14.399Z,25.70
2018-09-03T19:02:44.140Z,26.27
2018-09-03T19:05:15.503Z,27.20
2018-09-03T19:07:46.766Z,25.53
2018-09-03T19:10:15.946Z,27.97
2018-09-03T19:12:45.113Z,26.47
2018-09-03T19:15:16.261Z,27.70
2018-09-03T19:17:47.605Z,28.83
2018-09-03T19:20:17.154Z,28.70
2018-09-03T19:22:48.586Z,31.40
2018-09-03T19:25:18.726Z,28.80
2018-09-03T19:27:48.530Z,29.83
2018-09-03T19:30:18.322Z,29.33
2018-09-03T19:32:49.090Z,30.77
2018-09-03T19:35:18.965Z,29.83
2018-09-03T19:37:48.325Z,27.60
2018-09-03T19:40:18.854Z,29.03
2018-09-03T19:42:49.803Z,30.17
2018-09-03T19:45:20.931Z,29.17
2018-09-03T19:47:51.622Z,27.27
2018-09-03T19:50:21.606Z,29.67
2018-09-03T19:52:51.117Z,30.90
2018-09-03T19:55:21.811Z,30.83
2018-09-03T19:57:52.087Z,28.63
2018-09-03T20:00:21.589Z,31.67
2018-09-03T20:02:53.182Z,33.53
2018-09-03T20:05:25.635Z,31.30
2018-09-03T20:07:56.037Z,29.20
2018-09-03T20:10:27.640Z,30.47
2018-09-03T20:12:57.588Z,31.30
2018-09-03T20:15:29.142Z,30.17
2018-09-03T20:18:00.126Z,29.13
2018-09-03T20:20:29.706Z,30.67
2018-09-03T20:22:59.872Z,28.67
2018-09-03T20:25:29.127Z,29.13
2018-09-03T20:28:00.718Z,29.90
2018-09-03T20:30:31.946Z,27.30
2018-09-03T20:33:01.869Z,28.37
2018-09-03T20:35:31.082Z,30.97
2018-09-03T20:38:02.927Z,31.10
2018-09-03T20:40:34.526Z,31.53
2018-09-03T20:43:04.574Z,32.63
2018-09-03T20:45:34.894Z,30.03
2018-09-03T20:48:05.558Z,31.87
2018-09-03T20:50:36.570Z,30.90
2018-09-03T20:53:06.796Z,30.90
2018-09-03T20:55:37.858Z,29.43
2018-09-03T20:58:09.058Z,30.97
2018-09-03T21:00:39.094Z,30.83
2018-09-03T21:03:10.686Z,28.63
2018-09-03T21:05:41.463Z,28.50
2018-09-03T21:08:11.361Z,28.37
2018-09-03T21:10:42.083Z,27.77
2018-09-03T21:13:12.502Z,30.70
2018-09-03T21:15:42.819Z,28.23
2018-09-03T21:18:13.553Z,27.93
2018-09-03T21:20:43.839Z,27.73
2018-09-03T21:23:14.279Z,27.03
2018-09-03T21:25:45.818Z,27.67
2018-09-03T21:28:18.343Z,28.90
2018-09-03T21:30:49.088Z,29.33
2018-09-03T21:33:19.034Z,28.47
2018-09-03T21:35:49.944Z,28.20
2018-09-03T21:38:19.739Z,29.73
2018-09-03T21:40:50.644Z,29.73
2018-09-03T21:43:21.935Z,32.80
2018-09-03T21:45:51.998Z,29.40
2018-09-03T21:48:21.946Z,31.03
2018-09-03T21:50:52.227Z,33.13
2018-09-03T21:53:22.267Z,28.33
2018-09-03T21:55:52.979Z,30.87
2018-09-03T21:58:24.635Z,32.20
2018-09-03T22:00:55.844Z,30.47
2018-09-03T22:03:26.517Z,33.00
2018-09-03T22:05:56.501Z,32.67
2018-09-03T22:08:27.625Z,33.33
2018-09-03T22:10:57.362Z,33.53
2018-09-03T22:13:27.509Z,33.47
2018-09-03T22:15:58.115Z,30.73
2018-09-03T22:18:30.460Z,32.53
2018-09-03T22:21:00.301Z,32.17
2018-09-03T22:23:29.727Z,32.17
2018-09-03T22:25:59.120Z,32.87
2018-09-03T22:28:29.598Z,32.50
2018-09-03T22:31:00.679Z,31.53
2018-09-03T22:33:30.719Z,34.17
2018-09-03T22:36:03.007Z,33.67
2018-09-03T22:38:33.499Z,32.83
2018-09-03T22:41:03.212Z,36.43
2018-09-03T22:43:32.391Z,35.77
2018-09-03T22:46:01.563Z,33.97
2018-09-03T22:48:32.276Z,37.03
2018-09-03T22:51:01.920Z,35.50
2018-09-03T22:53:31.566Z,37.40
2018-09-03T22:56:01.323Z,38.30
2018-09-03T22:58:31.655Z,38.10
2018-09-03T23:01:02.191Z,37.63
2018-09-03T23:03:32.341Z,37.53
2018-09-03T23:06:02.447Z,39.13
2018-09-03T23:08:32.704Z,38.73
2018-09-03T23:11:03.348Z,36.47
2018-09-03T23:13:32.950Z,37.67
2018-09-03T23:16:02.359Z,37.83
2018-09-03T23:18:32.575Z,38.27
2018-09-03T23:21:02.145Z,37.63
2018-09-03T23:23:31.716Z,37.00
2018-09-03T23:26:01.444Z,38.47
2018-09-03T23:28:30.961Z,38.60
2018-09-03T23:31:01.315Z,38.03
2018-09-03T23:33:32.491Z,37.77
2018-09-03T23:36:02.145Z,36.73
2018-09-03T23:38:32.574Z,36.40
2018-09-03T23:41:02.688Z,34.73
2018-09-03T23:43:32.652Z,36.17
2018-09-03T23:46:02.704Z,34.90
2018-09-03T23:48:33.470Z,34.70
2018-09-03T23:51:04.575Z,35.47
2018-09-03T23:53:35.862Z,34.70
2018-09-03T23:56:06.073Z,32.73
2018-09-03T23:58:36.758Z,34.27
